Time;durP1;ratioP1;P1;durP2;ratioP2;P2;SDS_P1;SDS_P2;PMS_P1;PMS_P2;Temp;Humidity;BMP_temperature;BMP_pressure;BME280_temperature;BME280_humidity;BME280_pressure;Samples;Min_cycle;Max_cycle;Signal;HPM_P1;HPM_P2
2022/03/17 00:01:07;;;;;;;24.38;18.30;;;;;;;10.35;81.07;67923.38;5051275;28;20032;-85
2022/03/17 00:03:33;;;;;;;25.65;16.85;;;;;;;10.33;80.79;67921.09;5069181;28;20066;-83
2022/03/17 00:05:58;;;;;;;24.77;19.45;;;;;;;10.34;81.17;67922.22;5074623;28;20048;-84
2022/03/17 00:08:24;;;;;;;28.20;19.80;;;;;;;10.35;80.57;67923.38;5057857;28;20059;-83
2022/03/17 00:10:49;;;;;;;26.60;18.92;;;;;;;10.34;81.18;67917.47;5042948;28;20037;-85
2022/03/17 00:13:15;;;;;;;26.38;20.95;;;;;;;10.32;81.75;67914.63;5055578;28;20045;-84
2022/03/17 00:15:40;;;;;;;23.77;18.60;;;;;;;;;;5061104;28;20037;-84
2022/03/17 00:18:06;;;;;;;27.50;17.45;;;;;;;10.31;80.64;67919.41;5053067;28;20415;-86
2022/03/17 00:20:32;;;;;;;25.42;17.40;;;;;;;;;;5063043;28;20045;-83
2022/03/17 00:22:58;;;;;;;28.63;18.70;;;;;;;;;;5064475;28;20056;-84
2022/03/17 00:25:25;;;;;;;27.50;18.45;;;;;;;;;;5069425;28;20047;-85
2022/03/17 00:27:51;;;;;;;26.25;19.73;;;;;;;10.34;81.41;67916.91;5066730;28;20063;-87
2022/03/17 00:30:17;;;;;;;27.13;18.58;;;;;;;10.36;81.17;67924.50;5062559;28;20041;-86
2022/03/17 00:32:43;;;;;;;25.73;17.70;;;;;;;10.33;81.06;67916.34;5059388;28;20071;-85
2022/03/17 00:37:53;;;;;;;28.17;19.20;;;;;;;10.33;81.39;67916.34;5060796;28;20124;-85
2022/03/17 00:40:18;;;;;;;29.35;20.55;;;;;;;;;;5055797;28;20507;-84
2022/03/17 00:42:44;;;;;;;26.70;17.50;;;;;;;;;;5064593;28;20474;-86
2022/03/17 00:45:10;;;;;;;27.77;18.63;;;;;;;;;;5064605;28;20409;-84
2022/03/17 00:47:39;;;;;;;25.92;19.02;;;;;;;10.38;81.14;67926.75;5065805;28;20036;-84
2022/03/17 00:50:06;;;;;;;27.75;19.27;;;;;;;10.38;80.96;67926.75;5058982;28;20558;-86
2022/03/17 00:52:31;;;;;;;27.80;18.75;;;;;;;;;;5062984;28;20473;-83
2022/03/17 00:54:57;;;;;;;29.17;20.30;;;;;;;;;;5070028;28;20048;-84
2022/03/17 00:57:23;;;;;;;30.60;21.92;;;;;;;10.34;82.97;67922.22;5067551;28;20047;-84
2022/03/17 00:59:49;;;;;;;28.63;21.85;;;;;;;10.27;84.28;67908.97;5055327;28;20182;-83
2022/03/17 01:02:14;;;;;;;29.38;19.25;;;;;;;10.21;85.42;67908.03;5065674;28;20044;-84
2022/03/17 01:04:39;;;;;;;31.98;21.52;;;;;;;;;;5070057;28;20067;-85
2022/03/17 01:07:05;;;;;;;30.50;22.55;;;;;;;10.14;86.87;67894.78;5061613;28;20048;-84
2022/03/17 01:09:31;;;;;;;30.10;21.15;;;;;;;10.09;86.03;67900.28;5034845;28;20068;-83
2022/03/17 01:11:57;;;;;;;30.42;21.27;;;;;;;10.10;86.53;67890.25;5067431;28;20044;-84
2022/03/17 01:14:23;;;;;;;30.05;21.65;;;;;;;10.08;86.99;67893.84;5062436;28;20047;-85
2022/03/17 01:16:50;;;;;;;31.70;23.15;;;;;;;10.06;87.46;67891.00;5058949;28;20673;-84
2022/03/17 01:19:19;;;;;;;30.92;21.58;;;;;;;10.02;87.92;67886.47;5053302;28;20647;-84
2022/03/17 01:21:45;;;;;;;29.15;20.65;;;;;;;9.98;87.93;67882.50;5059195;28;20044;-84
2022/03/17 01:24:11;;;;;;;31.55;22.63;;;;;;;9.97;88.12;67880.81;5054968;28;20097;-83
2022/03/17 01:26:36;;;;;;;32.92;21.55;;;;;;;;;;5064722;28;20152;-85
2022/03/17 01:29:02;;;;;;;29.77;21.02;;;;;;;;;;5060474;28;20054;-84
2022/03/17 01:31:28;;;;;;;29.67;21.73;;;;;;;10.03;87.13;67888.16;5070796;28;20048;-84
2022/03/17 01:33:54;;;;;;;30.83;20.83;;;;;;;;;;5062854;28;20040;-84
2022/03/17 01:36:19;;;;;;;31.10;20.75;;;;;;;10.03;87.02;67888.16;5061985;28;20582;-85
2022/03/17 01:38:44;;;;;;;32.75;21.55;;;;;;;10.00;87.24;67884.78;5058838;28;20603;-84
2022/03/17 01:41:10;;;;;;;28.23;19.27;;;;;;;10.01;86.80;67885.34;5050910;28;20044;-85
2022/03/17 01:43:35;;;;;;;31.23;19.80;;;;;;;;;;5062315;28;20037;-85
2022/03/17 01:46:01;;;;;;;30.65;20.08;;;;;;;10.05;86.38;67885.13;5055855;28;20045;-85
2022/03/17 01:48:26;;;;;;;28.30;20.77;;;;;;;10.05;86.29;67895.75;5073083;28;20048;-83
2022/03/17 01:50:53;;;;;;;31.00;19.90;;;;;;;10.07;86.33;67892.72;5058142;28;20032;-85
2022/03/17 01:53:21;;;;;;;30.52;21.50;;;;;;;10.09;86.20;67894.97;5069937;28;20052;-85
2022/03/17 01:55:46;;;;;;;28.02;20.95;;;;;;;;;;5067773;28;20053;-84
2022/03/17 01:58:12;;;;;;;33.85;20.95;;;;;;;10.09;85.79;67889.66;5068685;28;20070;-85
2022/03/17 02:00:40;;;;;;;29.52;21.58;;;;;;;;;;5072302;28;20052;-85
2022/03/17 02:03:06;;;;;;;29.80;20.65;;;;;;;10.09;85.80;67894.97;5069097;28;20044;-85
2022/03/17 02:05:32;;;;;;;33.15;21.90;;;;;;;;;;5071805;28;20045;-86
2022/03/17 02:07:57;;;;;;;30.70;20.08;;;;;;;10.11;85.46;67897.25;5072226;28;20044;-86
2022/03/17 02:10:23;;;;;;;32.38;20.85;;;;;;;10.11;85.43;67891.94;5077875;28;20044;-88
2022/03/17 02:15:33;;;;;;;32.90;22.55;;;;;;;10.13;85.76;67899.53;5073422;28;20071;-86
2022/03/17 02:18:02;;;;;;;32.38;22.02;;;;;;;10.10;85.61;67890.25;5068535;28;20495;-87
2022/03/17 02:20:28;;;;;;;31.03;20.53;;;;;;;10.12;85.63;67893.06;5069527;28;20040;-85
2022/03/17 02:25:33;;;;;;;33.50;22.52;;;;;;;10.16;85.42;67902.38;5074525;28;20068;-85
2022/03/17 02:25:50;;;;;;;34.25;22.15;;;;;;;10.20;85.29;67906.31;5066157;28;20057;-87
2022/03/17 02:28:16;;;;;;;32.60;23.27;;;;;;;10.20;85.13;67906.31;5040479;28;20091;-86
2022/03/17 02:30:42;;;;;;;32.30;21.90;;;;;;;;;;5052766;28;20087;-86
2022/03/17 02:33:10;;;;;;;34.28;24.75;;;;;;;10.26;84.89;67908.38;5061361;28;20045;-86
2022/03/17 02:35:37;;;;;;;34.72;25.15;;;;;;;;;;5069055;28;20060;-86
2022/03/17 02:38:03;;;;;;;31.85;24.17;;;;;;;10.28;84.70;67918.09;5065087;28;20041;-84
2022/03/17 02:40:30;;;;;;;34.70;25.17;;;;;;;10.33;84.49;67921.09;5054371;28;20033;-84
2022/03/17 02:42:57;;;;;;;31.98;25.65;;;;;;;10.35;85.00;67923.94;5070427;28;20093;-83
2022/03/17 02:45:23;;;;;;;32.70;22.77;;;;;;;10.36;84.48;67924.50;5064889;28;20037;-84
2022/03/17 02:47:48;;;;;;;32.13;21.20;;;;;;;10.41;83.57;67930.16;5054410;28;20171;-84
2022/03/17 02:50:14;;;;;;;34.03;23.50;;;;;;;;;;5059845;28;20206;-83
2022/03/17 02:52:39;;;;;;;36.72;22.73;;;;;;;10.52;82.78;67937.31;5053229;28;20052;-84
2022/03/17 02:55:05;;;;;;;36.47;23.63;;;;;;;;;;5040217;28;20053;-84
2022/03/17 02:57:31;;;;;;;31.08;23.55;;;;;;;;;;5055973;28;20044;-85
2022/03/17 02:59:56;;;;;;;33.97;24.50;;;;;;;10.64;82.07;67955.13;5042447;28;20049;-84
2022/03/17 03:02:22;;;;;;;33.05;23.17;;;;;;;10.64;81.61;67947.16;5068290;28;20043;-84
2022/03/17 03:04:48;;;;;;;32.42;24.83;;;;;;;10.65;81.96;67956.84;5060997;28;20063;-85
2022/03/17 03:07:14;;;;;;;31.65;21.67;;;;;;;10.68;81.29;67959.69;5066601;28;20040;-85
2022/03/17 03:09:39;;;;;;;32.35;21.77;;;;;;;10.68;81.29;67959.69;5062736;28;20076;-85
2022/03/17 03:12:05;;;;;;;31.63;21.15;;;;;;;10.66;81.13;67957.97;5071276;28;20072;-84
2022/03/17 03:14:31;;;;;;;33.20;25.08;;;;;;;10.66;81.43;67957.41;5066323;28;20033;-85
2022/03/17 03:16:57;;;;;;;32.60;23.75;;;;;;;10.65;82.18;67950.97;5064296;28;20055;-84
2022/03/17 03:19:23;;;;;;;33.60;24.63;;;;;;;10.58;81.97;67949.47;5070676;28;20044;-85
2022/03/17 03:21:48;;;;;;;38.78;22.27;;;;;;;;;;5064673;28;20097;-83
2022/03/17 03:24:15;;;;;;;31.85;19.98;;;;;;;10.55;81.69;67946.06;5064490;28;20045;-86
2022/03/17 03:26:41;;;;;;;35.60;22.40;;;;;;;;;;5077220;28;20529;-84
2022/03/17 03:29:17;;;;;;;34.45;23.05;;;;;;;10.54;82.08;67944.94;5067054;28;20064;-84
2022/03/17 03:31:42;;;;;;;31.30;21.23;;;;;;;10.53;81.94;67943.81;5038419;28;20411;-84
2022/03/17 03:34:08;;;;;;;33.83;23.10;;;;;;;;;;5066259;28;20059;-85
2022/03/17 03:39:17;;;;;;;32.53;22.48;;;;;;;;;;5071392;28;20085;-86
2022/03/17 03:41:43;;;;;;;36.95;23.70;;;;;;;10.55;82.34;67940.16;5062588;28;20131;-85
2022/03/17 03:44:08;;;;;;;33.95;23.67;;;;;;;;;;5045998;28;20040;-84
2022/03/17 03:46:34;;;;;;;35.10;22.75;;;;;;;10.58;82.41;67949.47;5052356;28;20041;-85
2022/03/17 03:48:59;;;;;;;34.10;21.67;;;;;;;10.61;81.87;67952.84;5062148;28;20044;-86
2022/03/17 03:51:24;;;;;;;32.17;20.35;;;;;;;10.65;82.28;67956.28;5069780;28;20532;-82
2022/03/17 03:56:34;;;;;;;37.50;22.45;;;;;;;10.67;81.97;67959.09;5072978;28;20063;-84
2022/03/17 03:59:04;;;;;;;34.28;23.30;;;;;;;10.67;82.53;67953.78;5050307;28;20040;-85
2022/03/17 04:01:32;;;;;;;32.17;21.35;;;;;;;10.73;81.59;67965.34;5051372;28;20049;-84
2022/03/17 04:03:58;;;;;;;34.53;23.02;;;;;;;10.75;81.85;67967.63;5070436;28;20132;-82
2022/03/17 04:06:23;;;;;;;35.05;24.95;;;;;;;10.75;82.31;67968.19;5039188;28;20143;-85
2022/03/17 04:08:49;;;;;;;33.65;23.48;;;;;;;10.77;82.10;67969.91;5047302;28;20045;-85
2022/03/17 04:11:14;;;;;;;36.35;25.13;;;;;;;;;;5057570;28;20049;-85
2022/03/17 04:13:40;;;;;;;33.60;25.20;;;;;;;10.79;82.80;67972.19;5061250;28;20135;-84
2022/03/17 04:16:05;;;;;;;33.30;21.92;;;;;;;10.80;82.58;67973.31;5048578;28;20052;-84
2022/03/17 04:18:30;;;;;;;35.33;25.92;;;;;;;;;;5066695;28;20052;-85
2022/03/17 04:20:56;;;;;;;34.95;23.23;;;;;;;;;;5066304;28;20048;-85
2022/03/17 04:23:21;;;;;;;35.15;22.58;;;;;;;10.77;84.70;67970.47;5065462;28;20036;-85
2022/03/17 04:25:46;;;;;;;37.60;23.95;;;;;;;10.73;86.10;67960.03;5074609;28;20044;-86
2022/03/17 04:28:12;;;;;;;37.60;25.92;;;;;;;;;;5052907;28;20053;-86
2022/03/17 04:30:37;;;;;;;40.55;27.48;;;;;;;;;;5067794;28;20079;-86
2022/03/17 04:33:03;;;;;;;38.95;26.63;;;;;;;;;;5042923;28;20040;-86
2022/03/17 04:35:28;;;;;;;39.15;24.70;;;;;;;10.54;92.59;67944.94;5063524;28;20486;-85
2022/03/17 04:37:54;;;;;;;41.13;29.05;;;;;;;;;;5059377;28;20053;-86
2022/03/17 04:40:19;;;;;;;41.20;27.60;;;;;;;10.46;94.36;67935.28;5060791;28;20044;-86
2022/03/17 04:42:44;;;;;;;46.28;25.63;;;;;;;10.42;95.54;67930.75;5061486;28;20043;-85
2022/03/17 04:45:10;;;;;;;39.60;28.40;;;;;;;10.41;95.60;67930.16;5048762;28;20051;-86
2022/03/17 04:47:35;;;;;;;42.17;27.15;;;;;;;;;;5049343;28;20052;-86
2022/03/17 04:50:01;;;;;;;44.63;28.98;;;;;;;;;;5067475;28;20052;-85
2022/03/17 04:55:10;;;;;;;47.63;28.27;;;;;;;10.24;99.84;67910.84;5090099;28;20113;-84
2022/03/17 04:57:36;;;;;;;46.08;27.75;;;;;;;10.21;99.87;67908.03;5086727;28;20238;-85
2022/03/17 05:00:02;;;;;;;44.40;26.92;;;;;;;10.16;100.00;67897.59;5089695;28;20065;-84
2022/03/17 05:02:27;;;;;;;44.35;30.23;;;;;;;10.17;100.00;67904.06;5072183;28;20064;-85
2022/03/17 05:04:53;;;;;;;48.40;32.28;;;;;;;10.15;100.00;67904.44;5067336;28;20046;-86
2022/03/17 05:07:19;;;;;;;44.80;29.63;;;;;;;10.11;100.00;67891.94;5064506;28;20101;-86
2022/03/17 05:09:44;;;;;;;45.08;30.85;;;;;;;10.10;100.00;67896.13;5066468;28;20375;-86
2022/03/17 05:12:11;;;;;;;47.53;32.55;;;;;;;;;;5051225;28;20043;-86
2022/03/17 05:14:36;;;;;;;50.28;31.52;;;;;;;9.99;100.00;67878.31;5065738;28;20082;-85
2022/03/17 05:17:02;;;;;;;55.60;36.42;;;;;;;;;;5066649;28;20502;-84
2022/03/17 05:19:27;;;;;;;53.45;31.75;;;;;;;9.89;100.00;67866.97;5066139;28;20072;-85
2022/03/17 05:21:52;;;;;;;57.88;37.00;;;;;;;;;;5052549;28;20577;-85
2022/03/17 05:24:18;;;;;;;55.97;31.88;;;;;;;9.73;100.00;67849.41;5080702;28;20054;-85
2022/03/17 05:26:45;;;;;;;59.15;33.20;;;;;;;;;;5045629;28;20040;-85
2022/03/17 05:29:12;;;;;;;57.15;34.40;;;;;;;9.60;100.00;67840.53;5068606;28;20037;-85
2022/03/17 05:31:38;;;;;;;63.50;42.10;;;;;;;9.58;100.00;67838.28;5048620;28;20113;-84
2022/03/17 05:34:03;;;;;;;69.03;40.78;;;;;;;9.50;100.00;67829.22;5062650;28;20056;-85
2022/03/17 05:36:29;;;;;;;72.88;44.30;;;;;;;9.48;100.00;67829.59;5058940;28;20048;-84
2022/03/17 05:38:54;;;;;;;67.88;39.28;;;;;;;9.44;100.00;67822.41;5055237;28;20041;-84
2022/03/17 05:41:20;;;;;;;61.35;31.90;;;;;;;;;;5064273;28;20411;-84
2022/03/17 05:43:46;;;;;;;59.17;37.40;;;;;;;9.34;100.00;67814.28;5060920;28;20052;-84
2022/03/17 05:46:11;;;;;;;57.00;30.65;;;;;;;9.32;100.00;67804.06;5060385;28;20037;-85
2022/03/17 05:48:39;;;;;;;55.83;38.17;;;;;;;9.32;100.00;67812.03;5065604;28;20052;-84
2022/03/17 05:51:05;;;;;;;50.15;30.00;;;;;;;9.29;100.00;67805.41;5065214;28;20043;-89
2022/03/17 05:53:30;;;;;;;48.25;25.70;;;;;;;9.24;100.00;67802.97;5044415;28;20044;-83
2022/03/17 05:55:56;;;;;;;47.63;26.55;;;;;;;;;;5031581;28;20056;-85
2022/03/17 05:58:21;;;;;;;50.78;29.77;;;;;;;;;;5060580;28;20056;-85
2022/03/17 06:00:46;;;;;;;34.63;19.67;;;;;;;;;;5062940;28;20044;-83
2022/03/17 06:03:12;;;;;;;28.63;19.83;;;;;;;8.99;100.00;67772.53;5066995;28;20040;-86
2022/03/17 06:05:37;;;;;;;23.80;13.95;;;;;;;8.88;100.00;67760.06;5062620;28;20040;-85
2022/03/17 06:08:02;;;;;;;20.52;13.10;;;;;;;;;;5069850;28;20041;-86
2022/03/17 06:10:33;;;;;;;19.52;13.55;;;;;;;8.71;100.00;67736.06;5070454;28;20082;-84
2022/03/17 06:13:02;;;;;;;20.48;13.57;;;;;;;8.72;100.00;67737.75;5062988;28;20045;-86
2022/03/17 06:15:28;;;;;;;17.65;11.20;;;;;;;8.58;100.00;67727.22;5064585;28;20111;-86
2022/03/17 06:17:54;;;;;;;22.65;13.73;;;;;;;;;;5065482;28;20107;-86
2022/03/17 06:20:22;;;;;;;16.58;12.93;;;;;;;8.54;100.00;67725.88;5062460;28;20056;-84
2022/03/17 06:22:50;;;;;;;15.70;10.40;;;;;;;8.47;100.00;67717.97;5062356;28;20060;-86
2022/03/17 06:25:18;;;;;;;17.15;11.65;;;;;;;8.48;100.00;67710.56;5068965;28;20045;-86
2022/03/17 06:27:44;;;;;;;16.42;10.65;;;;;;;8.41;100.00;67710.59;5058829;28;20049;-82
2022/03/17 06:30:12;;;;;;;14.93;10.07;;;;;;;8.38;100.00;67707.19;5069301;28;20099;-83
2022/03/17 06:32:39;;;;;;;15.68;12.80;;;;;;;8.38;100.00;67709.84;5068667;28;20044;-85
2022/03/17 06:35:15;;;;;;;15.32;10.30;;;;;;;8.35;100.00;67696.97;5032621;28;20040;-83
2022/03/17 06:37:41;;;;;;;15.75;12.27;;;;;;;8.33;100.00;67694.69;5062813;28;20036;-86
2022/03/17 06:40:07;;;;;;;14.85;10.98;;;;;;;8.31;100.00;67699.81;5048758;28;20584;-86
2022/03/17 06:42:33;;;;;;;16.45;11.18;;;;;;;8.23;100.00;67688.09;5062914;28;20043;-82
2022/03/17 06:44:58;;;;;;;15.05;11.90;;;;;;;8.23;100.00;67688.09;5075092;28;20048;-83
2022/03/17 06:47:24;;;;;;;14.45;12.25;;;;;;;8.20;100.00;67685.28;5064896;28;20048;-87
2022/03/17 06:49:50;;;;;;;15.18;11.98;;;;;;;8.16;100.00;67683.38;5072307;28;20048;-86
2022/03/17 06:52:15;;;;;;;16.65;11.38;;;;;;;8.07;100.00;67673.75;5066773;28;20048;-88
2022/03/17 06:54:41;;;;;;;17.90;11.90;;;;;;;8.05;100.00;67668.28;5064587;28;20493;-88
2022/03/17 06:57:06;;;;;;;18.40;14.10;;;;;;;8.06;100.00;67675.28;5065302;28;20040;-87
2022/03/17 06:59:31;;;;;;;19.27;13.82;;;;;;;8.06;100.00;67669.97;5035440;28;20045;-87
2022/03/17 07:01:57;;;;;;;19.63;13.43;;;;;;;8.02;100.00;67665.44;5070307;28;20474;-88
2022/03/17 07:04:22;;;;;;;17.20;12.23;;;;;;;;;;5069024;28;20044;-88
2022/03/17 07:06:48;;;;;;;17.17;12.40;;;;;;;7.99;100.00;67656.19;5068328;28;20725;-88
2022/03/17 07:09:13;;;;;;;17.15;10.68;;;;;;;7.94;100.00;67651.09;5053049;28;20075;-87
2022/03/17 07:11:39;;;;;;;20.42;11.32;;;;;;;;;;5065046;28;20057;-87
2022/03/17 07:14:04;;;;;;;15.65;10.77;;;;;;;7.87;100.00;67651.69;5045625;28;20094;-86
2022/03/17 07:16:29;;;;;;;17.33;10.95;;;;;;;;;;5071061;28;20743;-87
2022/03/17 07:18:55;;;;;;;17.83;9.13;;;;;;;7.86;100.00;67647.34;5058973;28;20064;-88
2022/03/17 07:21:20;;;;;;;14.40;9.82;;;;;;;;;;5055984;28;20037;-88
2022/03/17 07:23:46;;;;;;;17.60;10.38;;;;;;;7.86;100.00;67647.34;5067395;28;20735;-89
2022/03/17 07:26:11;;;;;;;18.92;9.40;;;;;;;;;;5057322;28;20565;-86
2022/03/17 07:28:37;;;;;;;19.55;10.40;;;;;;;7.80;100.00;67643.19;5058606;28;20049;-87
2022/03/17 07:31:02;;;;;;;17.40;10.70;;;;;;;7.75;100.00;67634.88;5060642;28;20073;-88
2022/03/17 07:33:27;;;;;;;19.42;10.80;;;;;;;7.76;100.00;67639.22;5067300;28;20616;-85
2022/03/17 07:35:53;;;;;;;17.10;9.85;;;;;;;;;;5069093;28;20052;-89
2022/03/17 07:38:19;;;;;;;19.90;12.23;;;;;;;7.73;100.00;67633.19;5051893;28;20041;-88
2022/03/17 07:40:46;;;;;;;17.80;12.05;;;;;;;7.75;100.00;67634.88;5064783;28;20470;-89
2022/03/17 07:43:12;;;;;;;17.33;11.75;;;;;;;7.74;100.00;67634.31;5056410;28;20045;-89
2022/03/17 07:45:37;;;;;;;17.48;12.50;;;;;;;7.74;100.00;67634.31;5058057;28;20720;-89
2022/03/17 07:48:05;;;;;;;16.15;10.02;;;;;;;7.70;100.00;67629.78;5065692;28;20043;-87
2022/03/17 07:50:31;;;;;;;16.42;11.73;;;;;;;;;;5079777;28;20350;-86
2022/03/17 07:52:58;;;;;;;17.70;9.23;;;;;;;7.71;100.00;67630.94;5072003;28;20108;-85
2022/03/17 07:55:23;;;;;;;14.30;8.13;;;;;;;7.70;100.00;67629.78;5088815;27;20056;-88
2022/03/17 07:57:49;;;;;;;20.70;8.77;;;;;;;;;;5082557;28;20029;-85
2022/03/17 08:00:14;;;;;;;15.75;10.35;;;;;;;7.71;100.00;67630.94;5081229;28;20415;-85
2022/03/17 08:02:41;;;;;;;21.13;12.07;;;;;;;7.70;100.00;67632.44;5065520;28;20040;-89
2022/03/17 08:05:08;;;;;;;17.63;11.20;;;;;;;7.71;100.00;67630.94;5055596;28;20041;-88
2022/03/17 08:07:34;;;;;;;18.40;11.02;;;;;;;7.76;100.00;67641.88;5051716;28;20067;-87
2022/03/17 08:09:59;;;;;;;17.05;10.38;;;;;;;7.76;100.00;67638.66;5055396;28;20764;-89
2022/03/17 08:12:30;;;;;;;12.55;8.95;;;;;;;7.74;100.00;67633.75;5070303;28;20044;-88
2022/03/17 08:14:56;;;;;;;13.85;6.60;;;;;;;7.75;100.00;67634.88;5056345;28;20052;-87
2022/03/17 08:17:21;;;;;;;14.98;6.13;;;;;;;7.80;100.00;67640.56;5059464;28;20048;-88
2022/03/17 08:19:46;;;;;;;16.48;6.95;;;;;;;;;;5046108;28;20041;-89
2022/03/17 08:22:12;;;;;;;13.32;5.55;;;;;;;7.88;100.00;67652.25;5042136;28;20071;-88
2022/03/17 08:24:37;;;;;;;10.82;4.90;;;;;;;7.88;100.00;67652.81;5062224;28;20048;-88
2022/03/17 08:27:04;;;;;;;9.48;4.18;;;;;;;7.90;100.00;67651.84;5057920;28;20048;-86
2022/03/17 08:29:30;;;;;;;12.50;4.40;;;;;;;7.91;100.00;67653.56;5066772;28;20113;-89
2022/03/17 08:31:55;;;;;;;8.77;4.25;;;;;;;;;;5065299;28;20040;-87
2022/03/17 08:34:21;;;;;;;13.00;4.53;;;;;;;7.88;100.00;67649.59;4986591;28;20034;-88
2022/03/17 08:36:46;;;;;;;10.80;5.65;;;;;;;7.90;100.00;67652.41;4990012;28;20034;-86
2022/03/17 08:39:12;;;;;;;10.15;5.35;;;;;;;7.80;100.00;67640.56;5008254;28;20045;-84
2022/03/17 08:41:38;;;;;;;12.82;6.15;;;;;;;7.80;100.00;67641.13;5007380;28;20049;-86
2022/03/17 08:44:03;;;;;;;10.68;5.00;;;;;;;;;;5003549;28;20062;-85
2022/03/17 08:49:19;;;;;;;10.45;2.60;;;;;;;7.72;100.00;67631.50;5023889;28;20030;-85
2022/03/17 08:51:45;;;;;;;8.25;2.95;;;;;;;;;;5002357;28;20058;-85
2022/03/17 08:54:11;;;;;;;9.43;2.53;;;;;;;7.61;100.00;67622.25;5000677;28;20907;-90
2022/03/17 08:56:37;;;;;;;8.43;2.22;;;;;;;7.60;100.00;67621.13;4994224;28;20046;-89
2022/03/17 08:59:03;;;;;;;9.90;2.38;;;;;;;;;;5021823;28;20048;-88
2022/03/17 09:01:29;;;;;;;8.43;2.40;;;;;;;7.53;100.00;67611.09;5028592;28;20045;-88
2022/03/17 09:03:54;;;;;;;7.35;2.67;;;;;;;7.64;100.00;67623.00;5061330;28;20143;-87
2022/03/17 09:06:22;;;;;;;7.53;2.33;;;;;;;7.63;100.00;67622.44;5061300;28;20111;-89
2022/03/17 09:08:47;;;;;;;7.63;2.47;;;;;;;;;;5061707;28;20048;-88
2022/03/17 09:11:13;;;;;;;8.70;2.20;;;;;;;;;;5070158;28;20041;-88
2022/03/17 09:13:38;;;;;;;7.15;1.55;;;;;;;;;;5068103;28;20131;-88
2022/03/17 09:16:06;;;;;;;9.85;2.00;;;;;;;7.70;100.00;67629.78;5059338;28;20491;-89
2022/03/17 09:18:32;;;;;;;8.88;2.17;;;;;;;7.67;100.00;67629.03;5043242;28;20049;-88
2022/03/17 09:20:59;;;;;;;10.55;1.98;;;;;;;7.67;100.00;67626.38;5063211;28;20101;-88
2022/03/17 09:23:26;;;;;;;8.02;2.55;;;;;;;7.70;100.00;67629.78;5056519;28;20060;-88
2022/03/17 09:25:51;;;;;;;8.10;2.03;;;;;;;7.75;100.00;67629.59;5062340;28;20060;-86
2022/03/17 09:28:16;;;;;;;7.93;2.03;;;;;;;;;;5071888;28;20422;-89
2022/03/17 09:30:42;;;;;;;12.95;2.65;;;;;;;7.74;100.00;67634.31;5064688;28;20107;-88
2022/03/17 09:33:07;;;;;;;10.93;2.55;;;;;;;7.75;100.00;67635.44;5049670;28;20448;-88
2022/03/17 09:35:34;;;;;;;12.65;5.15;;;;;;;;;;5059332;28;20118;-89
2022/03/17 09:38:01;;;;;;;8.63;2.70;;;;;;;7.74;100.00;67629.03;5064540;28;20044;-89
2022/03/17 09:40:26;;;;;;;10.13;3.00;;;;;;;7.68;100.00;67628.09;5058304;28;20048;-88
2022/03/17 09:43:18;;;;;;;12.57;2.95;;;;;;;7.63;100.00;67621.88;5070419;28;20041;-88
2022/03/17 09:45:40;;;;;;;12.88;2.60;;;;;;;7.59;100.00;67619.97;5064449;28;20046;-89
2022/03/17 09:48:08;;;;;;;13.80;2.75;;;;;;;7.52;100.00;67609.41;5077818;28;20044;-85
2022/03/17 09:50:34;;;;;;;8.43;2.10;;;;;;;7.46;99.03;67603.19;5058556;28;20071;-88
2022/03/17 09:53:00;;;;;;;6.47;2.10;;;;;;;7.51;98.97;67610.91;5036509;28;20106;-87
2022/03/17 09:55:25;;;;;;;8.45;1.95;;;;;;;7.55;98.59;67613.38;5036713;28;20053;-89
2022/03/17 09:57:50;;;;;;;8.93;2.08;;;;;;;7.69;99.10;67628.66;5035097;28;20051;-87
2022/03/17 10:00:17;;;;;;;8.30;1.88;;;;;;;7.75;97.49;67634.88;5056186;28;20041;-89
2022/03/17 10:02:42;;;;;;;8.35;1.92;;;;;;;;;;5056496;28;20033;-88
2022/03/17 10:05:11;;;;;;;11.10;2.03;;;;;;;;;;5034799;28;20082;-89
2022/03/17 10:07:37;;;;;;;8.48;2.05;;;;;;;8.15;91.21;67679.59;5064004;28;20985;-88
2022/03/17 10:10:03;;;;;;;7.63;2.13;;;;;;;8.29;91.78;67695.47;5049737;28;20036;-88
2022/03/17 10:12:30;;;;;;;7.35;1.45;;;;;;;8.29;87.80;67695.47;5021690;28;20140;-88
2022/03/17 10:14:56;;;;;;;10.35;2.10;;;;;;;8.32;87.96;67698.31;5050752;28;20093;-85
2022/03/17 10:17:41;;;;;;;6.20;1.50;;;;;;;;;;5060184;28;20041;-89
2022/03/17 10:20:28;;;;;;;11.00;1.85;;;;;;;8.29;88.21;67695.47;5070234;28;20407;-89
2022/03/17 10:22:55;;;;;;;9.82;2.17;;;;;;;8.40;89.42;67701.50;5071152;28;20064;-88
2022/03/17 10:25:22;;;;;;;9.35;1.85;;;;;;;;;;5072229;28;20040;-86
2022/03/17 10:27:49;;;;;;;8.25;1.85;;;;;;;8.45;87.57;67712.47;5072116;28;20044;-88
2022/03/17 10:30:30;;;;;;;9.77;2.10;;;;;;;8.38;84.81;67705.09;5056492;28;20053;-89
2022/03/17 10:33:03;;;;;;;11.93;1.88;;;;;;;;;;5055457;28;20075;-88
2022/03/17 10:35:34;;;;;;;10.68;2.28;;;;;;;8.43;85.30;67704.91;5072396;28;20048;-88
2022/03/17 10:38:15;;;;;;;9.05;1.63;;;;;;;8.38;85.46;67707.19;5087522;28;20040;-87
2022/03/17 10:40:42;;;;;;;8.48;1.83;;;;;;;8.31;84.15;67691.84;5064554;28;20059;-88
2022/03/17 10:43:15;;;;;;;11.07;2.30;;;;;;;8.34;85.54;67701.13;5052218;28;20434;-87
2022/03/17 10:45:41;;;;;;;10.70;2.40;;;;;;;8.39;85.97;67705.69;5089617;28;20043;-88
2022/03/17 10:48:07;;;;;;;12.07;2.30;;;;;;;8.42;86.60;67709.63;5057493;28;20581;-88
2022/03/17 10:50:40;;;;;;;10.05;2.08;;;;;;;8.36;85.24;67708.69;5061483;28;20032;-88
2022/03/17 10:53:06;;;;;;;11.57;2.67;;;;;;;;;;5059692;28;20527;-89
2022/03/17 10:55:33;;;;;;;10.32;1.90;;;;;;;8.34;84.78;67700.56;5055525;28;20044;-88
2022/03/17 10:58:14;;;;;;;9.23;2.05;;;;;;;;;;5070024;28;20037;-88
2022/03/17 11:00:53;;;;;;;9.80;1.52;;;;;;;8.46;85.68;67718.91;5061254;28;20052;-88
2022/03/17 11:03:20;;;;;;;11.73;2.17;;;;;;;8.45;85.73;67715.69;5071009;28;20046;-89
2022/03/17 11:05:50;;;;;;;8.60;2.08;;;;;;;8.48;85.96;67715.88;5069771;28;20044;-89
2022/03/17 11:08:16;;;;;;;8.80;2.10;;;;;;;;;;5050080;28;20044;-87
2022/03/17 11:10:41;;;;;;;11.23;1.65;;;;;;;8.51;84.93;67721.91;5068578;28;20040;-88
2022/03/17 11:13:11;;;;;;;9.48;2.63;;;;;;;;;;5065335;28;20041;-88
2022/03/17 11:15:43;;;;;;;10.15;2.83;;;;;;;8.59;84.34;67728.34;5040881;28;20041;-87
2022/03/17 11:18:19;;;;;;;12.63;1.55;;;;;;;;;;5069472;28;20037;-88
2022/03/17 11:20:45;;;;;;;7.45;2.00;;;;;;;;;;5048955;28;20128;-88
2022/03/17 11:23:19;;;;;;;8.88;2.10;;;;;;;8.66;83.01;67736.28;5050339;28;20321;-88
2022/03/17 11:25:57;;;;;;;8.23;1.90;;;;;;;;;;5056039;28;20048;-90
2022/03/17 11:28:34;;;;;;;7.57;1.85;;;;;;;8.75;84.07;67745.91;5070411;28;20386;-88
2022/03/17 11:31:01;;;;;;;7.80;1.80;;;;;;;8.87;83.79;67758.94;5068944;28;20037;-87
2022/03/17 11:33:28;;;;;;;9.18;1.73;;;;;;;;;;5049723;28;20045;-88
2022/03/17 11:36:01;;;;;;;7.95;1.80;;;;;;;8.91;82.73;67766.13;5066903;28;20068;-87
2022/03/17 11:38:32;;;;;;;6.32;1.00;;;;;;;8.91;81.15;67763.47;5068457;28;20051;-88
2022/03/17 11:41:19;;;;;;;6.45;1.27;;;;;;;;;;5058453;28;20495;-88
2022/03/17 11:43:47;;;;;;;5.00;1.48;;;;;;;8.92;80.23;67765.16;5062201;28;20051;-89
2022/03/17 11:46:23;;;;;;;8.15;1.40;;;;;;;8.88;80.03;67755.31;5067919;28;20048;-89
2022/03/17 11:48:56;;;;;;;6.22;2.05;;;;;;;8.98;80.69;67774.06;5063152;28;20048;-88
2022/03/17 11:51:22;;;;;;;7.82;1.90;;;;;;;;;;5047043;28;20037;-87
2022/03/17 11:54:04;;;;;;;8.73;1.73;;;;;;;8.95;80.39;67770.66;4977637;28;20169;-86
2022/03/17 11:56:43;;;;;;;8.45;1.30;;;;;;;9.16;81.28;67791.22;4996329;28;20735;-88
2022/03/17 11:59:17;;;;;;;9.88;1.83;;;;;;;9.18;81.41;67788.75;4993030;28;20044;-87
2022/03/17 12:01:46;;;;;;;7.03;1.30;;;;;;;9.16;80.78;67791.22;4984787;28;20050;-86
2022/03/17 12:04:28;;;;;;;9.55;2.17;;;;;;;;;;4980765;28;20389;-87
2022/03/17 12:07:05;;;;;;;10.43;2.17;;;;;;;9.24;80.02;67800.31;4968557;28;20489;-88
2022/03/17 12:09:32;;;;;;;8.05;2.10;;;;;;;;;;4997293;28;20093;-87
2022/03/17 12:11:58;;;;;;;13.05;2.15;;;;;;;9.37;79.21;67807.06;4979113;28;20041;-86
2022/03/17 12:14:24;;;;;;;12.15;2.08;;;;;;;9.39;77.79;67811.44;4988783;28;20045;-89
2022/03/17 12:17:06;;;;;;;7.13;1.55;;;;;;;9.36;78.04;67813.91;4993854;28;20046;-88
2022/03/17 12:19:36;;;;;;;12.55;3.00;;;;;;;;;;5005628;28;20628;-88
2022/03/17 12:22:13;;;;;;;6.95;2.15;;;;;;;9.43;77.55;67816.50;5065008;28;20040;-88